sensor_id;sensor_type;location;lat;lon;timestamp;P1;durP1;ratioP1;P2;durP2;ratioP2
908;SDS011;441;51.192;6.788;2023-09-19T00:00:15;28.97;;;27.77;;
908;SDS011;441;51.192;6.788;2023-09-19T00:02:45;28.60;;;27.40;;
908;SDS011;441;51.192;6.788;2023-09-19T00:05:13;29.37;;;28.07;;
908;SDS011;441;51.192;6.788;2023-09-19T00:07:40;29.83;;;28.63;;
908;SDS011;441;51.192;6.788;2023-09-19T00:10:07;29.70;;;28.30;;
908;SDS011;441;51.192;6.788;2023-09-19T00:12:35;29.53;;;28.43;;
908;SDS011;441;51.192;6.788;2023-09-19T00:15:02;30.13;;;28.73;;
908;SDS011;441;51.192;6.788;2023-09-19T00:17:31;33.17;;;31.87;;
908;SDS011;441;51.192;6.788;2023-09-19T00:20:01;29.00;;;27.90;;
908;SDS011;441;51.192;6.788;2023-09-19T00:22:32;29.70;;;28.20;;
908;SDS011;441;51.192;6.788;2023-09-19T00:24:59;31.23;;;29.63;;
908;SDS011;441;51.192;6.788;2023-09-19T00:27:27;30.77;;;29.30;;
908;SDS011;441;51.192;6.788;2023-09-19T00:29:54;29.43;;;28.23;;
908;SDS011;441;51.192;6.788;2023-09-19T00:32:22;30.70;;;29.30;;
908;SDS011;441;51.192;6.788;2023-09-19T00:34:49;29.73;;;28.40;;
908;SDS011;441;51.192;6.788;2023-09-19T00:37:17;30.20;;;29.00;;
908;SDS011;441;51.192;6.788;2023-09-19T00:39:44;29.70;;;28.50;;
908;SDS011;441;51.192;6.788;2023-09-19T00:42:17;29.23;;;28.03;;
908;SDS011;441;51.192;6.788;2023-09-19T00:44:46;31.27;;;29.87;;
908;SDS011;441;51.192;6.788;2023-09-19T00:47:16;29.93;;;28.63;;
908;SDS011;441;51.192;6.788;2023-09-19T00:49:43;31.40;;;29.97;;
908;SDS011;441;51.192;6.788;2023-09-19T00:52:14;30.13;;;28.83;;
908;SDS011;441;51.192;6.788;2023-09-19T00:54:45;29.50;;;28.30;;
908;SDS011;441;51.192;6.788;2023-09-19T00:57:13;30.50;;;29.30;;
908;SDS011;441;51.192;6.788;2023-09-19T00:59:42;29.93;;;28.80;;
908;SDS011;441;51.192;6.788;2023-09-19T01:02:09;32.13;;;30.93;;
908;SDS011;441;51.192;6.788;2023-09-19T01:04:39;29.90;;;28.60;;
908;SDS011;441;51.192;6.788;2023-09-19T01:07:07;29.17;;;28.07;;
908;SDS011;441;51.192;6.788;2023-09-19T01:09:36;29.57;;;28.20;;
908;SDS011;441;51.192;6.788;2023-09-19T01:12:05;31.40;;;30.00;;
908;SDS011;441;51.192;6.788;2023-09-19T01:14:37;30.53;;;29.23;;
908;SDS011;441;51.192;6.788;2023-09-19T01:17:14;32.50;;;30.87;;
908;SDS011;441;51.192;6.788;2023-09-19T01:20:00;30.90;;;29.80;;
908;SDS011;441;51.192;6.788;2023-09-19T01:22:46;31.00;;;29.67;;
908;SDS011;441;51.192;6.788;2023-09-19T01:25:45;30.73;;;29.27;;
908;SDS011;441;51.192;6.788;2023-09-19T01:28:32;30.33;;;29.13;;
908;SDS011;441;51.192;6.788;2023-09-19T01:31:09;29.40;;;28.30;;
908;SDS011;441;51.192;6.788;2023-09-19T01:33:56;29.53;;;28.23;;
908;SDS011;441;51.192;6.788;2023-09-19T01:36:29;30.17;;;28.77;;
908;SDS011;441;51.192;6.788;2023-09-19T01:38:59;29.23;;;27.90;;
908;SDS011;441;51.192;6.788;2023-09-19T01:44:22;30.23;;;28.80;;
908;SDS011;441;51.192;6.788;2023-09-19T01:46:59;32.37;;;30.43;;
908;SDS011;441;51.192;6.788;2023-09-19T01:49:37;30.57;;;29.33;;
908;SDS011;441;51.192;6.788;2023-09-19T01:52:11;29.97;;;28.67;;
908;SDS011;441;51.192;6.788;2023-09-19T01:54:41;29.87;;;28.50;;
908;SDS011;441;51.192;6.788;2023-09-19T01:57:16;31.30;;;30.00;;
908;SDS011;441;51.192;6.788;2023-09-19T01:59:48;32.67;;;30.80;;
908;SDS011;441;51.192;6.788;2023-09-19T02:02:22;31.00;;;29.67;;
908;SDS011;441;51.192;6.788;2023-09-19T02:04:51;31.37;;;30.13;;
908;SDS011;441;51.192;6.788;2023-09-19T02:07:18;30.47;;;29.17;;
908;SDS011;441;51.192;6.788;2023-09-19T02:09:45;31.23;;;30.03;;
908;SDS011;441;51.192;6.788;2023-09-19T02:12:13;30.73;;;29.53;;
908;SDS011;441;51.192;6.788;2023-09-19T02:14:40;31.40;;;30.20;;
908;SDS011;441;51.192;6.788;2023-09-19T02:17:07;30.93;;;29.67;;
908;SDS011;441;51.192;6.788;2023-09-19T02:19:37;31.17;;;29.83;;
908;SDS011;441;51.192;6.788;2023-09-19T02:22:05;30.13;;;28.87;;
908;SDS011;441;51.192;6.788;2023-09-19T02:24:35;32.70;;;31.30;;
908;SDS011;441;51.192;6.788;2023-09-19T02:27:02;30.17;;;28.97;;
908;SDS011;441;51.192;6.788;2023-09-19T02:29:31;31.07;;;29.37;;
908;SDS011;441;51.192;6.788;2023-09-19T02:31:59;30.70;;;29.30;;
908;SDS011;441;51.192;6.788;2023-09-19T02:34:26;30.23;;;29.03;;
908;SDS011;441;51.192;6.788;2023-09-19T02:36:55;31.50;;;29.90;;
908;SDS011;441;51.192;6.788;2023-09-19T02:39:22;32.10;;;30.70;;
908;SDS011;441;51.192;6.788;2023-09-19T02:41:49;31.63;;;30.33;;
908;SDS011;441;51.192;6.788;2023-09-19T02:44:16;31.20;;;29.70;;
908;SDS011;441;51.192;6.788;2023-09-19T02:46:45;30.90;;;29.30;;
908;SDS011;441;51.192;6.788;2023-09-19T02:49:12;31.30;;;30.00;;
908;SDS011;441;51.192;6.788;2023-09-19T02:51:39;30.53;;;29.13;;
908;SDS011;441;51.192;6.788;2023-09-19T02:54:08;31.00;;;29.50;;
908;SDS011;441;51.192;6.788;2023-09-19T02:56:35;29.40;;;28.20;;
908;SDS011;441;51.192;6.788;2023-09-19T02:59:03;30.23;;;29.03;;
908;SDS011;441;51.192;6.788;2023-09-19T03:01:30;31.40;;;30.00;;
908;SDS011;441;51.192;6.788;2023-09-19T03:03:58;32.17;;;30.97;;
908;SDS011;441;51.192;6.788;2023-09-19T03:06:25;34.00;;;32.37;;
908;SDS011;441;51.192;6.788;2023-09-19T03:08:53;32.10;;;30.70;;
908;SDS011;441;51.192;6.788;2023-09-19T03:11:23;33.30;;;31.50;;
908;SDS011;441;51.192;6.788;2023-09-19T03:13:50;31.60;;;30.30;;
908;SDS011;441;51.192;6.788;2023-09-19T03:16:18;32.90;;;31.60;;
908;SDS011;441;51.192;6.788;2023-09-19T03:18:47;34.00;;;32.60;;
908;SDS011;441;51.192;6.788;2023-09-19T03:21:14;32.00;;;30.57;;
908;SDS011;441;51.192;6.788;2023-09-19T03:23:42;32.73;;;31.17;;
908;SDS011;441;51.192;6.788;2023-09-19T03:26:11;33.07;;;31.57;;
908;SDS011;441;51.192;6.788;2023-09-19T03:28:42;31.30;;;30.10;;
908;SDS011;441;51.192;6.788;2023-09-19T03:31:11;33.03;;;31.53;;
908;SDS011;441;51.192;6.788;2023-09-19T03:33:38;31.43;;;30.20;;
908;SDS011;441;51.192;6.788;2023-09-19T03:36:05;31.47;;;30.00;;
908;SDS011;441;51.192;6.788;2023-09-19T03:38:32;31.37;;;30.03;;
908;SDS011;441;51.192;6.788;2023-09-19T03:41:00;32.87;;;31.47;;
908;SDS011;441;51.192;6.788;2023-09-19T03:43:27;34.27;;;32.60;;
908;SDS011;441;51.192;6.788;2023-09-19T03:45:55;32.87;;;31.07;;
908;SDS011;441;51.192;6.788;2023-09-19T03:48:22;35.93;;;34.23;;
908;SDS011;441;51.192;6.788;2023-09-19T03:50:49;32.63;;;31.43;;
908;SDS011;441;51.192;6.788;2023-09-19T03:53:16;34.30;;;32.70;;
908;SDS011;441;51.192;6.788;2023-09-19T03:55:44;33.20;;;31.83;;
908;SDS011;441;51.192;6.788;2023-09-19T03:58:12;33.40;;;31.70;;
908;SDS011;441;51.192;6.788;2023-09-19T04:00:39;37.30;;;35.90;;
908;SDS011;441;51.192;6.788;2023-09-19T04:03:07;36.37;;;34.97;;
908;SDS011;441;51.192;6.788;2023-09-19T04:05:35;37.00;;;35.40;;
908;SDS011;441;51.192;6.788;2023-09-19T04:08:02;41.00;;;39.13;;
908;SDS011;441;51.192;6.788;2023-09-19T04:10:30;37.57;;;35.97;;
908;SDS011;441;51.192;6.788;2023-09-19T04:12:57;39.27;;;37.67;;
908;SDS011;441;51.192;6.788;2023-09-19T04:15:24;38.73;;;36.93;;
908;SDS011;441;51.192;6.788;2023-09-19T04:17:51;37.53;;;36.00;;
908;SDS011;441;51.192;6.788;2023-09-19T04:20:19;37.03;;;35.43;;
908;SDS011;441;51.192;6.788;2023-09-19T04:22:48;36.60;;;34.80;;
908;SDS011;441;51.192;6.788;2023-09-19T04:25:15;37.60;;;36.10;;
908;SDS011;441;51.192;6.788;2023-09-19T04:27:41;38.60;;;36.90;;
908;SDS011;441;51.192;6.788;2023-09-19T04:30:10;37.53;;;36.13;;
908;SDS011;441;51.192;6.788;2023-09-19T04:32:37;37.00;;;35.60;;
908;SDS011;441;51.192;6.788;2023-09-19T04:35:06;35.30;;;33.90;;
908;SDS011;441;51.192;6.788;2023-09-19T04:37:36;36.50;;;35.00;;
908;SDS011;441;51.192;6.788;2023-09-19T04:40:04;38.63;;;36.87;;
908;SDS011;441;51.192;6.788;2023-09-19T04:42:37;38.70;;;37.00;;
908;SDS011;441;51.192;6.788;2023-09-19T04:45:05;41.63;;;40.07;;
908;SDS011;441;51.192;6.788;2023-09-19T04:47:33;42.40;;;40.80;;
908;SDS011;441;51.192;6.788;2023-09-19T04:50:00;43.30;;;41.33;;
908;SDS011;441;51.192;6.788;2023-09-19T04:52:30;39.47;;;37.67;;
908;SDS011;441;51.192;6.788;2023-09-19T04:54:58;37.60;;;36.10;;
908;SDS011;441;51.192;6.788;2023-09-19T04:57:25;36.77;;;35.37;;
908;SDS011;441;51.192;6.788;2023-09-19T04:59:53;39.00;;;37.50;;
908;SDS011;441;51.192;6.788;2023-09-19T05:02:20;36.20;;;34.80;;
908;SDS011;441;51.192;6.788;2023-09-19T05:04:47;38.17;;;36.57;;
908;SDS011;441;51.192;6.788;2023-09-19T05:07:14;36.60;;;35.00;;
908;SDS011;441;51.192;6.788;2023-09-19T05:09:42;41.30;;;39.50;;
908;SDS011;441;51.192;6.788;2023-09-19T05:12:10;39.07;;;37.20;;
908;SDS011;441;51.192;6.788;2023-09-19T05:14:37;40.23;;;38.67;;
908;SDS011;441;51.192;6.788;2023-09-19T05:17:05;38.00;;;36.50;;
908;SDS011;441;51.192;6.788;2023-09-19T05:19:32;37.00;;;35.60;;
908;SDS011;441;51.192;6.788;2023-09-19T05:22:00;37.83;;;36.10;;
908;SDS011;441;51.192;6.788;2023-09-19T05:24:29;37.83;;;36.23;;
908;SDS011;441;51.192;6.788;2023-09-19T05:26:56;37.50;;;35.80;;
908;SDS011;441;51.192;6.788;2023-09-19T05:29:24;36.73;;;35.23;;
908;SDS011;441;51.192;6.788;2023-09-19T05:31:51;39.40;;;37.70;;
908;SDS011;441;51.192;6.788;2023-09-19T05:34:19;37.63;;;36.13;;
908;SDS011;441;51.192;6.788;2023-09-19T05:36:46;39.60;;;37.57;;
908;SDS011;441;51.192;6.788;2023-09-19T05:39:14;38.20;;;36.40;;
908;SDS011;441;51.192;6.788;2023-09-19T05:41:41;40.37;;;38.50;;
908;SDS011;441;51.192;6.788;2023-09-19T05:44:08;38.60;;;36.83;;
908;SDS011;441;51.192;6.788;2023-09-19T05:46:36;37.50;;;36.00;;
908;SDS011;441;51.192;6.788;2023-09-19T05:49:03;37.53;;;35.90;;
908;SDS011;441;51.192;6.788;2023-09-19T05:51:30;38.80;;;36.90;;
908;SDS011;441;51.192;6.788;2023-09-19T05:53:57;37.00;;;35.33;;
908;SDS011;441;51.192;6.788;2023-09-19T05:56:23;36.70;;;35.00;;
908;SDS011;441;51.192;6.788;2023-09-19T05:58:50;37.40;;;35.53;;
908;SDS011;441;51.192;6.788;2023-09-19T06:01:18;37.77;;;36.17;;
908;SDS011;441;51.192;6.788;2023-09-19T06:03:46;37.63;;;35.97;;
908;SDS011;441;51.192;6.788;2023-09-19T06:06:13;37.70;;;36.00;;
908;SDS011;441;51.192;6.788;2023-09-19T06:08:40;38.03;;;36.27;;
908;SDS011;441;51.192;6.788;2023-09-19T06:11:09;38.23;;;36.53;;
908;SDS011;441;51.192;6.788;2023-09-19T06:13:36;39.37;;;37.80;;
908;SDS011;441;51.192;6.788;2023-09-19T06:16:04;37.80;;;36.20;;
908;SDS011;441;51.192;6.788;2023-09-19T06:18:31;36.77;;;35.20;;
908;SDS011;441;51.192;6.788;2023-09-19T06:21:01;41.00;;;38.80;;
908;SDS011;441;51.192;6.788;2023-09-19T06:23:30;39.50;;;37.80;;
908;SDS011;441;51.192;6.788;2023-09-19T06:25:57;38.27;;;36.50;;
908;SDS011;441;51.192;6.788;2023-09-19T06:28:24;39.73;;;38.03;;
908;SDS011;441;51.192;6.788;2023-09-19T06:30:53;39.77;;;38.07;;
908;SDS011;441;51.192;6.788;2023-09-19T06:33:20;40.50;;;38.80;;
908;SDS011;441;51.192;6.788;2023-09-19T06:35:47;40.83;;;39.03;;
908;SDS011;441;51.192;6.788;2023-09-19T06:38:17;38.33;;;36.33;;
908;SDS011;441;51.192;6.788;2023-09-19T06:40:44;39.97;;;38.17;;
908;SDS011;441;51.192;6.788;2023-09-19T06:43:11;39.70;;;38.00;;
908;SDS011;441;51.192;6.788;2023-09-19T06:45:39;39.57;;;37.50;;
908;SDS011;441;51.192;6.788;2023-09-19T06:48:07;39.93;;;38.33;;
908;SDS011;441;51.192;6.788;2023-09-19T06:50:35;41.23;;;39.30;;
908;SDS011;441;51.192;6.788;2023-09-19T06:53:02;40.77;;;38.60;;
908;SDS011;441;51.192;6.788;2023-09-19T06:55:30;37.30;;;35.60;;
908;SDS011;441;51.192;6.788;2023-09-19T06:57:57;41.23;;;39.53;;
908;SDS011;441;51.192;6.788;2023-09-19T07:00:24;40.17;;;37.93;;
908;SDS011;441;51.192;6.788;2023-09-19T07:02:56;42.20;;;40.10;;
908;SDS011;441;51.192;6.788;2023-09-19T07:05:25;39.10;;;37.27;;
908;SDS011;441;51.192;6.788;2023-09-19T07:07:53;39.93;;;38.23;;
908;SDS011;441;51.192;6.788;2023-09-19T07:10:21;41.90;;;40.23;;
908;SDS011;441;51.192;6.788;2023-09-19T07:12:56;39.40;;;37.80;;
908;SDS011;441;51.192;6.788;2023-09-19T07:15:23;40.67;;;38.90;;
908;SDS011;441;51.192;6.788;2023-09-19T07:17:51;39.10;;;37.30;;
908;SDS011;441;51.192;6.788;2023-09-19T07:20:19;40.80;;;38.77;;
908;SDS011;441;51.192;6.788;2023-09-19T07:22:46;39.03;;;37.53;;
908;SDS011;441;51.192;6.788;2023-09-19T07:25:13;39.50;;;37.80;;
908;SDS011;441;51.192;6.788;2023-09-19T07:27:40;39.53;;;37.87;;
908;SDS011;441;51.192;6.788;2023-09-19T07:30:09;38.63;;;36.83;;
908;SDS011;441;51.192;6.788;2023-09-19T07:32:37;40.57;;;38.97;;
908;SDS011;441;51.192;6.788;2023-09-19T07:35:06;42.33;;;40.53;;
908;SDS011;441;51.192;6.788;2023-09-19T07:37:33;39.87;;;38.27;;
908;SDS011;441;51.192;6.788;2023-09-19T07:40:01;38.43;;;36.73;;
908;SDS011;441;51.192;6.788;2023-09-19T07:42:32;40.27;;;38.47;;
908;SDS011;441;51.192;6.788;2023-09-19T07:45:02;38.90;;;37.20;;
908;SDS011;441;51.192;6.788;2023-09-19T07:47:30;39.00;;;37.30;;
908;SDS011;441;51.192;6.788;2023-09-19T07:49:57;40.67;;;38.80;;
908;SDS011;441;51.192;6.788;2023-09-19T07:52:26;39.67;;;37.97;;
908;SDS011;441;51.192;6.788;2023-09-19T07:54:52;40.50;;;38.50;;
908;SDS011;441;51.192;6.788;2023-09-19T07:57:19;41.90;;;40.20;;
908;SDS011;441;51.192;6.788;2023-09-19T07:59:47;40.40;;;38.50;;
908;SDS011;441;51.192;6.788;2023-09-19T08:02:14;38.73;;;37.00;;
908;SDS011;441;51.192;6.788;2023-09-19T08:04:43;40.07;;;38.30;;
908;SDS011;441;51.192;6.788;2023-09-19T08:07:11;38.40;;;36.80;;
908;SDS011;441;51.192;6.788;2023-09-19T08:09:38;38.20;;;36.60;;
908;SDS011;441;51.192;6.788;2023-09-19T08:12:05;37.10;;;35.40;;
908;SDS011;441;51.192;6.788;2023-09-19T08:14:35;39.13;;;37.47;;
908;SDS011;441;51.192;6.788;2023-09-19T08:17:02;38.83;;;37.20;;
908;SDS011;441;51.192;6.788;2023-09-19T08:19:30;35.47;;;33.87;;
908;SDS011;441;51.192;6.788;2023-09-19T08:21:59;37.10;;;35.50;;
908;SDS011;441;51.192;6.788;2023-09-19T08:24:26;41.20;;;38.90;;
908;SDS011;441;51.192;6.788;2023-09-19T08:26:54;39.70;;;37.70;;
908;SDS011;441;51.192;6.788;2023-09-19T08:29:21;37.73;;;36.13;;
908;SDS011;441;51.192;6.788;2023-09-19T08:31:52;40.13;;;38.30;;
908;SDS011;441;51.192;6.788;2023-09-19T08:34:21;38.83;;;37.00;;
908;SDS011;441;51.192;6.788;2023-09-19T08:36:48;37.43;;;35.73;;
908;SDS011;441;51.192;6.788;2023-09-19T08:39:19;36.47;;;34.90;;
908;SDS011;441;51.192;6.788;2023-09-19T08:41:45;37.03;;;35.53;;
908;SDS011;441;51.192;6.788;2023-09-19T08:44:12;38.60;;;37.00;;
908;SDS011;441;51.192;6.788;2023-09-19T08:46:40;39.07;;;37.30;;
908;SDS011;441;51.192;6.788;2023-09-19T08:49:08;37.10;;;35.50;;
908;SDS011;441;51.192;6.788;2023-09-19T08:51:45;40.00;;;38.20;;
908;SDS011;441;51.192;6.788;2023-09-19T08:54:14;38.57;;;36.43;;
908;SDS011;441;51.192;6.788;2023-09-19T08:56:48;40.03;;;38.27;;
908;SDS011;441;51.192;6.788;2023-09-19T08:59:17;37.13;;;35.43;;
908;SDS011;441;51.192;6.788;2023-09-19T09:01:50;36.17;;;34.43;;
908;SDS011;441;51.192;6.788;2023-09-19T09:04:19;37.43;;;35.73;;
908;SDS011;441;51.192;6.788;2023-09-19T09:06:46;36.70;;;34.90;;
908;SDS011;441;51.192;6.788;2023-09-19T09:09:18;38.87;;;37.03;;
908;SDS011;441;51.192;6.788;2023-09-19T09:11:47;38.90;;;36.73;;
908;SDS011;441;51.192;6.788;2023-09-19T09:14:16;39.27;;;37.57;;
908;SDS011;441;51.192;6.788;2023-09-19T09:16:44;38.53;;;36.63;;
908;SDS011;441;51.192;6.788;2023-09-19T09:19:13;38.07;;;36.30;;
908;SDS011;441;51.192;6.788;2023-09-19T09:21:49;37.90;;;36.27;;
908;SDS011;441;51.192;6.788;2023-09-19T09:24:28;40.00;;;38.20;;
908;SDS011;441;51.192;6.788;2023-09-19T09:27:00;40.13;;;38.43;;
908;SDS011;441;51.192;6.788;2023-09-19T09:29:42;38.57;;;36.60;;
908;SDS011;441;51.192;6.788;2023-09-19T09:32:19;38.50;;;37.00;;
908;SDS011;441;51.192;6.788;2023-09-19T09:34:47;39.10;;;37.50;;
908;SDS011;441;51.192;6.788;2023-09-19T09:37:16;39.00;;;37.30;;
908;SDS011;441;51.192;6.788;2023-09-19T09:39:54;39.20;;;37.17;;
908;SDS011;441;51.192;6.788;2023-09-19T09:42:31;40.93;;;38.80;;
908;SDS011;441;51.192;6.788;2023-09-19T09:47:54;38.90;;;37.20;;
908;SDS011;441;51.192;6.788;2023-09-19T09:50:24;39.90;;;38.30;;
908;SDS011;441;51.192;6.788;2023-09-19T09:52:54;39.40;;;37.53;;
908;SDS011;441;51.192;6.788;2023-09-19T09:55:41;40.50;;;38.80;;
908;SDS011;441;51.192;6.788;2023-09-19T09:58:26;36.47;;;34.90;;
908;SDS011;441;51.192;6.788;2023-09-19T10:00:55;40.47;;;38.37;;
908;SDS011;441;51.192;6.788;2023-09-19T10:03:30;37.93;;;36.43;;
908;SDS011;441;51.192;6.788;2023-09-19T10:05:59;39.67;;;38.07;;
908;SDS011;441;51.192;6.788;2023-09-19T10:08:34;40.30;;;38.50;;
908;SDS011;441;51.192;6.788;2023-09-19T10:11:10;37.47;;;35.77;;
908;SDS011;441;51.192;6.788;2023-09-19T10:13:43;37.90;;;36.20;;
908;SDS011;441;51.192;6.788;2023-09-19T10:16:12;39.33;;;37.73;;
908;SDS011;441;51.192;6.788;2023-09-19T10:18:43;39.40;;;37.70;;
908;SDS011;441;51.192;6.788;2023-09-19T10:21:12;39.10;;;37.20;;
908;SDS011;441;51.192;6.788;2023-09-19T10:23:39;41.93;;;39.93;;
908;SDS011;441;51.192;6.788;2023-09-19T10:26:10;40.20;;;38.40;;
908;SDS011;441;51.192;6.788;2023-09-19T10:28:38;38.93;;;37.00;;
908;SDS011;441;51.192;6.788;2023-09-19T10:31:06;41.30;;;39.50;;
908;SDS011;441;51.192;6.788;2023-09-19T10:33:39;39.20;;;37.40;;
908;SDS011;441;51.192;6.788;2023-09-19T10:36:08;40.93;;;39.27;;
908;SDS011;441;51.192;6.788;2023-09-19T10:38:37;36.67;;;34.90;;
908;SDS011;441;51.192;6.788;2023-09-19T10:41:09;36.00;;;34.30;;
908;SDS011;441;51.192;6.788;2023-09-19T10:43:37;36.10;;;34.50;;
908;SDS011;441;51.192;6.788;2023-09-19T10:46:11;40.07;;;38.37;;
908;SDS011;441;51.192;6.788;2023-09-19T10:48:38;35.40;;;34.00;;
908;SDS011;441;51.192;6.788;2023-09-19T10:51:09;38.90;;;37.23;;
908;SDS011;441;51.192;6.788;2023-09-19T10:53:43;38.33;;;36.53;;
908;SDS011;441;51.192;6.788;2023-09-19T10:56:15;38.47;;;36.77;;
908;SDS011;441;51.192;6.788;2023-09-19T10:58:45;37.43;;;35.93;;
908;SDS011;441;51.192;6.788;2023-09-19T11:01:14;38.67;;;37.07;;
908;SDS011;441;51.192;6.788;2023-09-19T11:03:43;38.50;;;36.80;;
908;SDS011;441;51.192;6.788;2023-09-19T11:06:11;39.37;;;37.57;;
908;SDS011;441;51.192;6.788;2023-09-19T11:11:51;37.43;;;35.77;;
908;SDS011;441;51.192;6.788;2023-09-19T11:14:28;38.77;;;36.67;;
908;SDS011;441;51.192;6.788;2023-09-19T11:20:24;39.90;;;38.20;;
908;SDS011;441;51.192;6.788;2023-09-19T11:23:17;39.87;;;37.77;;
908;SDS011;441;51.192;6.788;2023-09-19T11:25:53;35.80;;;33.97;;
908;SDS011;441;51.192;6.788;2023-09-19T11:28:33;35.90;;;34.20;;
908;SDS011;441;51.192;6.788;2023-09-19T11:34:43;38.80;;;37.20;;
908;SDS011;441;51.192;6.788;2023-09-19T11:40:36;37.93;;;36.20;;
908;SDS011;441;51.192;6.788;2023-09-19T11:46:04;35.37;;;33.77;;
908;SDS011;441;51.192;6.788;2023-09-19T11:48:34;37.90;;;36.10;;
908;SDS011;441;51.192;6.788;2023-09-19T11:53:53;37.97;;;36.27;;
908;SDS011;441;51.192;6.788;2023-09-19T11:56:22;38.47;;;36.63;;
908;SDS011;441;51.192;6.788;2023-09-19T11:58:53;37.93;;;36.33;;
908;SDS011;441;51.192;6.788;2023-09-19T12:01:21;38.27;;;36.67;;
908;SDS011;441;51.192;6.788;2023-09-19T12:03:54;36.80;;;35.00;;
908;SDS011;441;51.192;6.788;2023-09-19T12:06:23;35.30;;;33.80;;
908;SDS011;441;51.192;6.788;2023-09-19T12:08:51;36.47;;;34.60;;
908;SDS011;441;51.192;6.788;2023-09-19T12:11:22;34.40;;;32.90;;
908;SDS011;441;51.192;6.788;2023-09-19T12:13:49;35.73;;;34.13;;
908;SDS011;441;51.192;6.788;2023-09-19T12:16:18;38.23;;;36.73;;
908;SDS011;441;51.192;6.788;2023-09-19T12:18:48;37.27;;;35.47;;
908;SDS011;441;51.192;6.788;2023-09-19T12:21:26;35.27;;;33.77;;
908;SDS011;441;51.192;6.788;2023-09-19T12:26:46;36.90;;;35.23;;
908;SDS011;441;51.192;6.788;2023-09-19T12:29:14;37.00;;;35.47;;
908;SDS011;441;51.192;6.788;2023-09-19T12:31:51;38.93;;;37.23;;
908;SDS011;441;51.192;6.788;2023-09-19T12:34:21;39.07;;;37.30;;
908;SDS011;441;51.192;6.788;2023-09-19T12:37:03;35.50;;;33.70;;
908;SDS011;441;51.192;6.788;2023-09-19T12:39:31;37.43;;;35.73;;
908;SDS011;441;51.192;6.788;2023-09-19T12:41:59;36.77;;;35.17;;
908;SDS011;441;51.192;6.788;2023-09-19T12:44:29;36.97;;;35.37;;
908;SDS011;441;51.192;6.788;2023-09-19T12:46:56;42.20;;;40.40;;
908;SDS011;441;51.192;6.788;2023-09-19T12:49:24;40.53;;;38.63;;
908;SDS011;441;51.192;6.788;2023-09-19T12:51:54;37.20;;;35.50;;
908;SDS011;441;51.192;6.788;2023-09-19T12:54:23;37.90;;;36.30;;
908;SDS011;441;51.192;6.788;2023-09-19T12:56:51;36.73;;;35.03;;
908;SDS011;441;51.192;6.788;2023-09-19T12:59:28;38.93;;;36.97;;
908;SDS011;441;51.192;6.788;2023-09-19T13:02:03;38.80;;;36.83;;
908;SDS011;441;51.192;6.788;2023-09-19T13:04:32;38.53;;;36.97;;
908;SDS011;441;51.192;6.788;2023-09-19T13:07:05;38.63;;;36.90;;
908;SDS011;441;51.192;6.788;2023-09-19T13:09:34;40.03;;;38.33;;
908;SDS011;441;51.192;6.788;2023-09-19T13:12:01;39.70;;;38.00;;
908;SDS011;441;51.192;6.788;2023-09-19T13:14:30;38.40;;;36.73;;
908;SDS011;441;51.192;6.788;2023-09-19T13:16:59;38.90;;;37.40;;
908;SDS011;441;51.192;6.788;2023-09-19T13:19:39;39.50;;;37.83;;
908;SDS011;441;51.192;6.788;2023-09-19T13:25:07;39.87;;;38.27;;
908;SDS011;441;51.192;6.788;2023-09-19T13:27:39;38.73;;;37.23;;
908;SDS011;441;51.192;6.788;2023-09-19T13:30:08;38.50;;;36.90;;
908;SDS011;441;51.192;6.788;2023-09-19T13:32:36;39.43;;;37.90;;
908;SDS011;441;51.192;6.788;2023-09-19T13:35:04;42.20;;;40.40;;
908;SDS011;441;51.192;6.788;2023-09-19T13:37:34;42.83;;;41.13;;
908;SDS011;441;51.192;6.788;2023-09-19T13:40:03;40.70;;;39.10;;
908;SDS011;441;51.192;6.788;2023-09-19T13:42:31;42.40;;;40.60;;
908;SDS011;441;51.192;6.788;2023-09-19T13:44:58;40.27;;;38.40;;
908;SDS011;441;51.192;6.788;2023-09-19T13:47:27;41.10;;;39.30;;
908;SDS011;441;51.192;6.788;2023-09-19T13:49:54;42.30;;;40.40;;
908;SDS011;441;51.192;6.788;2023-09-19T13:52:21;41.10;;;39.13;;
908;SDS011;441;51.192;6.788;2023-09-19T13:54:48;42.93;;;40.10;;
908;SDS011;441;51.192;6.788;2023-09-19T13:57:16;41.10;;;39.30;;
908;SDS011;441;51.192;6.788;2023-09-19T13:59:43;40.53;;;38.90;;
908;SDS011;441;51.192;6.788;2023-09-19T14:02:10;40.70;;;39.10;;
908;SDS011;441;51.192;6.788;2023-09-19T14:04:39;40.50;;;38.90;;
908;SDS011;441;51.192;6.788;2023-09-19T14:07:06;39.47;;;37.77;;
908;SDS011;441;51.192;6.788;2023-09-19T14:09:34;39.97;;;38.20;;
908;SDS011;441;51.192;6.788;2023-09-19T14:12:01;40.40;;;38.80;;
908;SDS011;441;51.192;6.788;2023-09-19T14:14:28;44.03;;;42.13;;
908;SDS011;441;51.192;6.788;2023-09-19T14:16:55;41.10;;;39.30;;
908;SDS011;441;51.192;6.788;2023-09-19T14:19:25;53.53;;;51.43;;
908;SDS011;441;51.192;6.788;2023-09-19T14:21:54;54.40;;;52.17;;
908;SDS011;441;51.192;6.788;2023-09-19T14:24:21;54.27;;;52.17;;
908;SDS011;441;51.192;6.788;2023-09-19T14:26:48;54.50;;;52.40;;
908;SDS011;441;51.192;6.788;2023-09-19T14:29:16;51.43;;;49.50;;
908;SDS011;441;51.192;6.788;2023-09-19T14:31:44;52.43;;;50.33;;
908;SDS011;441;51.192;6.788;2023-09-19T14:34:11;55.13;;;52.73;;
908;SDS011;441;51.192;6.788;2023-09-19T14:36:39;52.70;;;50.70;;
908;SDS011;441;51.192;6.788;2023-09-19T14:39:08;55.40;;;52.97;;
908;SDS011;441;51.192;6.788;2023-09-19T14:41:35;54.00;;;51.90;;
908;SDS011;441;51.192;6.788;2023-09-19T14:44:02;52.73;;;50.40;;
908;SDS011;441;51.192;6.788;2023-09-19T14:46:30;55.73;;;53.53;;
908;SDS011;441;51.192;6.788;2023-09-19T14:48:57;53.37;;;51.23;;
908;SDS011;441;51.192;6.788;2023-09-19T14:51:25;53.30;;;51.40;;
908;SDS011;441;51.192;6.788;2023-09-19T14:53:52;53.40;;;51.40;;
908;SDS011;441;51.192;6.788;2023-09-19T14:56:21;53.33;;;51.40;;
908;SDS011;441;51.192;6.788;2023-09-19T14:58:49;53.77;;;51.77;;
908;SDS011;441;51.192;6.788;2023-09-19T15:01:15;53.60;;;51.50;;
908;SDS011;441;51.192;6.788;2023-09-19T15:03:42;54.30;;;52.30;;
908;SDS011;441;51.192;6.788;2023-09-19T15:06:11;55.40;;;53.30;;
908;SDS011;441;51.192;6.788;2023-09-19T15:08:39;51.07;;;49.17;;
908;SDS011;441;51.192;6.788;2023-09-19T15:11:10;51.83;;;49.23;;
908;SDS011;441;51.192;6.788;2023-09-19T15:13:39;51.03;;;49.10;;
908;SDS011;441;51.192;6.788;2023-09-19T15:16:07;53.03;;;51.03;;
908;SDS011;441;51.192;6.788;2023-09-19T15:18:35;54.03;;;51.73;;
908;SDS011;441;51.192;6.788;2023-09-19T15:21:04;54.23;;;52.23;;
908;SDS011;441;51.192;6.788;2023-09-19T15:23:31;55.37;;;53.17;;
908;SDS011;441;51.192;6.788;2023-09-19T15:25:59;53.70;;;51.53;;
908;SDS011;441;51.192;6.788;2023-09-19T15:28:27;54.93;;;52.90;;
908;SDS011;441;51.192;6.788;2023-09-19T15:31:00;53.27;;;51.13;;
908;SDS011;441;51.192;6.788;2023-09-19T15:33:27;54.13;;;52.13;;
908;SDS011;441;51.192;6.788;2023-09-19T15:36:00;50.53;;;48.63;;
908;SDS011;441;51.192;6.788;2023-09-19T15:38:28;51.27;;;49.30;;
908;SDS011;441;51.192;6.788;2023-09-19T15:40:57;50.53;;;48.53;;
908;SDS011;441;51.192;6.788;2023-09-19T15:43:24;51.10;;;49.20;;
908;SDS011;441;51.192;6.788;2023-09-19T15:45:51;50.40;;;48.30;;
908;SDS011;441;51.192;6.788;2023-09-19T15:48:19;52.80;;;50.87;;
908;SDS011;441;51.192;6.788;2023-09-19T15:50:46;53.87;;;51.87;;
908;SDS011;441;51.192;6.788;2023-09-19T15:53:13;52.70;;;50.70;;
908;SDS011;441;51.192;6.788;2023-09-19T15:55:41;52.70;;;50.73;;
908;SDS011;441;51.192;6.788;2023-09-19T15:58:10;53.63;;;51.60;;